sensor_id;sensor_type;location;lat;lon;timestamp;P1;durP1;ratioP1;P2;durP2;ratioP2
13985;SDS011;7067;51.832;8.296;2022-12-18T00:01:13;1999.90;;;360.77;;
13985;SDS011;7067;51.832;8.296;2022-12-18T00:03:46;1953.03;;;319.63;;
13985;SDS011;7067;51.832;8.296;2022-12-18T00:06:11;1999.90;;;326.23;;
13985;SDS011;7067;51.832;8.296;2022-12-18T00:08:38;1612.73;;;264.97;;
13985;SDS011;7067;51.832;8.296;2022-12-18T00:11:08;1523.73;;;285.67;;
13985;SDS011;7067;51.832;8.296;2022-12-18T00:13:36;1994.37;;;312.90;;
13985;SDS011;7067;51.832;8.296;2022-12-18T00:16:02;1728.30;;;310.70;;
13985;SDS011;7067;51.832;8.296;2022-12-18T00:18:28;1640.60;;;304.53;;
13985;SDS011;7067;51.832;8.296;2022-12-18T00:20:53;1674.53;;;317.67;;
13985;SDS011;7067;51.832;8.296;2022-12-18T00:23:19;1999.90;;;320.40;;
13985;SDS011;7067;51.832;8.296;2022-12-18T00:25:44;1999.90;;;295.13;;
13985;SDS011;7067;51.832;8.296;2022-12-18T00:28:09;1557.30;;;461.63;;
13985;SDS011;7067;51.832;8.296;2022-12-18T00:30:35;1826.80;;;253.50;;
13985;SDS011;7067;51.832;8.296;2022-12-18T00:33:00;1964.57;;;313.83;;
13985;SDS011;7067;51.832;8.296;2022-12-18T00:35:26;1527.80;;;240.23;;
13985;SDS011;7067;51.832;8.296;2022-12-18T00:37:51;1593.07;;;285.93;;
13985;SDS011;7067;51.832;8.296;2022-12-18T00:40:16;1943.93;;;503.70;;
13985;SDS011;7067;51.832;8.296;2022-12-18T00:42:41;1877.70;;;769.20;;
13985;SDS011;7067;51.832;8.296;2022-12-18T00:45:23;1540.83;;;359.10;;
13985;SDS011;7067;51.832;8.296;2022-12-18T00:47:50;1999.90;;;301.57;;
13985;SDS011;7067;51.832;8.296;2022-12-18T00:50:15;1999.90;;;442.67;;
13985;SDS011;7067;51.832;8.296;2022-12-18T00:52:41;1525.27;;;373.63;;
13985;SDS011;7067;51.832;8.296;2022-12-18T00:55:06;1999.90;;;439.63;;
13985;SDS011;7067;51.832;8.296;2022-12-18T00:57:32;1792.67;;;365.47;;
13985;SDS011;7067;51.832;8.296;2022-12-18T00:59:57;1895.23;;;523.00;;
13985;SDS011;7067;51.832;8.296;2022-12-18T01:02:23;1620.90;;;490.30;;
13985;SDS011;7067;51.832;8.296;2022-12-18T01:04:48;1999.90;;;409.20;;
13985;SDS011;7067;51.832;8.296;2022-12-18T01:07:13;1528.17;;;334.93;;
13985;SDS011;7067;51.832;8.296;2022-12-18T01:09:39;1984.83;;;313.10;;
13985;SDS011;7067;51.832;8.296;2022-12-18T01:12:04;1581.03;;;327.30;;
13985;SDS011;7067;51.832;8.296;2022-12-18T01:14:30;1951.23;;;288.37;;
13985;SDS011;7067;51.832;8.296;2022-12-18T01:16:55;1561.33;;;325.73;;
13985;SDS011;7067;51.832;8.296;2022-12-18T01:19:20;1601.33;;;360.23;;
13985;SDS011;7067;51.832;8.296;2022-12-18T01:21:46;1671.10;;;371.00;;
13985;SDS011;7067;51.832;8.296;2022-12-18T01:24:11;1506.77;;;346.77;;
13985;SDS011;7067;51.832;8.296;2022-12-18T01:26:37;1562.53;;;319.80;;
13985;SDS011;7067;51.832;8.296;2022-12-18T01:29:02;1532.57;;;304.47;;
13985;SDS011;7067;51.832;8.296;2022-12-18T01:31:29;1713.20;;;291.63;;
13985;SDS011;7067;51.832;8.296;2022-12-18T01:33:56;1506.40;;;300.70;;
13985;SDS011;7067;51.832;8.296;2022-12-18T01:36:22;1477.60;;;320.33;;
13985;SDS011;7067;51.832;8.296;2022-12-18T01:38:55;1550.60;;;300.20;;
13985;SDS011;7067;51.832;8.296;2022-12-18T01:41:22;1855.50;;;301.33;;
13985;SDS011;7067;51.832;8.296;2022-12-18T01:46:22;1494.67;;;313.20;;
13985;SDS011;7067;51.832;8.296;2022-12-18T01:48:49;1688.37;;;289.87;;
13985;SDS011;7067;51.832;8.296;2022-12-18T01:51:16;1923.90;;;316.13;;
13985;SDS011;7067;51.832;8.296;2022-12-18T01:53:45;1786.50;;;274.43;;
13985;SDS011;7067;51.832;8.296;2022-12-18T01:56:12;1804.47;;;743.73;;
13985;SDS011;7067;51.832;8.296;2022-12-18T01:58:41;1185.00;;;189.17;;
13985;SDS011;7067;51.832;8.296;2022-12-18T02:01:20;1523.17;;;307.27;;
13985;SDS011;7067;51.832;8.296;2022-12-18T02:03:47;1778.27;;;331.10;;
13985;SDS011;7067;51.832;8.296;2022-12-18T02:06:18;1510.50;;;307.27;;
13985;SDS011;7067;51.832;8.296;2022-12-18T02:11:18;1946.27;;;292.20;;
13985;SDS011;7067;51.832;8.296;2022-12-18T02:22:34;1810.53;;;390.30;;
13985;SDS011;7067;51.832;8.296;2022-12-18T02:25:15;1652.50;;;328.70;;
13985;SDS011;7067;51.832;8.296;2022-12-18T02:27:41;1715.17;;;384.70;;
13985;SDS011;7067;51.832;8.296;2022-12-18T02:30:09;1325.47;;;265.40;;
13985;SDS011;7067;51.832;8.296;2022-12-18T02:32:37;1676.73;;;377.53;;
13985;SDS011;7067;51.832;8.296;2022-12-18T02:35:11;1270.87;;;279.60;;
13985;SDS011;7067;51.832;8.296;2022-12-18T02:37:38;1690.80;;;329.73;;
13985;SDS011;7067;51.832;8.296;2022-12-18T02:40:04;1512.17;;;303.50;;
13985;SDS011;7067;51.832;8.296;2022-12-18T02:42:30;1595.60;;;289.70;;
13985;SDS011;7067;51.832;8.296;2022-12-18T02:44:56;1501.23;;;337.93;;
13985;SDS011;7067;51.832;8.296;2022-12-18T02:47:22;1807.97;;;760.87;;
13985;SDS011;7067;51.832;8.296;2022-12-18T02:58:20;1666.50;;;276.33;;
13985;SDS011;7067;51.832;8.296;2022-12-18T03:03:41;1677.37;;;308.07;;
13985;SDS011;7067;51.832;8.296;2022-12-18T03:08:44;1488.73;;;277.53;;
13985;SDS011;7067;51.832;8.296;2022-12-18T03:11:12;1344.53;;;276.63;;
13985;SDS011;7067;51.832;8.296;2022-12-18T03:13:40;1556.90;;;284.00;;
13985;SDS011;7067;51.832;8.296;2022-12-18T03:16:09;1743.57;;;211.50;;
13985;SDS011;7067;51.832;8.296;2022-12-18T03:18:38;1770.73;;;312.50;;
13985;SDS011;7067;51.832;8.296;2022-12-18T03:21:13;1636.47;;;276.63;;
13985;SDS011;7067;51.832;8.296;2022-12-18T03:23:40;1659.80;;;295.43;;
13985;SDS011;7067;51.832;8.296;2022-12-18T03:26:10;1631.00;;;321.73;;
13985;SDS011;7067;51.832;8.296;2022-12-18T03:28:38;1716.73;;;334.13;;
13985;SDS011;7067;51.832;8.296;2022-12-18T03:31:09;1604.63;;;353.30;;
13985;SDS011;7067;51.832;8.296;2022-12-18T03:33:40;1640.63;;;322.93;;
13985;SDS011;7067;51.832;8.296;2022-12-18T03:36:27;1314.33;;;285.77;;
13985;SDS011;7067;51.832;8.296;2022-12-18T03:38:55;1908.23;;;271.13;;
13985;SDS011;7067;51.832;8.296;2022-12-18T03:44:29;1614.07;;;306.73;;
13985;SDS011;7067;51.832;8.296;2022-12-18T03:49:39;1610.67;;;329.63;;
13985;SDS011;7067;51.832;8.296;2022-12-18T03:54:36;1452.53;;;310.97;;
13985;SDS011;7067;51.832;8.296;2022-12-18T03:57:11;1371.13;;;303.77;;
13985;SDS011;7067;51.832;8.296;2022-12-18T03:59:39;1922.93;;;328.30;;
13985;SDS011;7067;51.832;8.296;2022-12-18T04:02:05;1530.47;;;313.83;;
13985;SDS011;7067;51.832;8.296;2022-12-18T04:04:32;1831.10;;;249.43;;
13985;SDS011;7067;51.832;8.296;2022-12-18T04:06:58;1999.90;;;999.90;;
13985;SDS011;7067;51.832;8.296;2022-12-18T04:09:24;1999.90;;;999.90;;
13985;SDS011;7067;51.832;8.296;2022-12-18T04:11:51;1999.90;;;999.90;;
13985;SDS011;7067;51.832;8.296;2022-12-18T04:14:16;1458.03;;;293.27;;
13985;SDS011;7067;51.832;8.296;2022-12-18T04:16:42;1732.93;;;284.80;;
13985;SDS011;7067;51.832;8.296;2022-12-18T04:19:07;1592.40;;;191.93;;
13985;SDS011;7067;51.832;8.296;2022-12-18T04:21:32;1939.80;;;755.47;;
13985;SDS011;7067;51.832;8.296;2022-12-18T04:23:58;1841.33;;;759.87;;
13985;SDS011;7067;51.832;8.296;2022-12-18T04:26:23;1546.23;;;281.70;;
13985;SDS011;7067;51.832;8.296;2022-12-18T04:28:48;1822.50;;;501.90;;
13985;SDS011;7067;51.832;8.296;2022-12-18T04:31:14;1984.00;;;242.93;;
13985;SDS011;7067;51.832;8.296;2022-12-18T04:33:39;1999.90;;;999.90;;
13985;SDS011;7067;51.832;8.296;2022-12-18T04:36:04;1999.90;;;999.90;;
13985;SDS011;7067;51.832;8.296;2022-12-18T04:38:30;1293.03;;;148.67;;
13985;SDS011;7067;51.832;8.296;2022-12-18T04:40:55;1425.50;;;245.30;;
13985;SDS011;7067;51.832;8.296;2022-12-18T04:43:21;1999.90;;;537.00;;
13985;SDS011;7067;51.832;8.296;2022-12-18T04:45:46;1317.40;;;276.07;;
13985;SDS011;7067;51.832;8.296;2022-12-18T04:48:11;1710.53;;;749.60;;
13985;SDS011;7067;51.832;8.296;2022-12-18T04:50:37;1199.93;;;283.80;;
13985;SDS011;7067;51.832;8.296;2022-12-18T04:53:02;1013.30;;;214.97;;
13985;SDS011;7067;51.832;8.296;2022-12-18T04:55:27;1222.83;;;291.03;;
13985;SDS011;7067;51.832;8.296;2022-12-18T04:57:53;1604.97;;;303.63;;
13985;SDS011;7067;51.832;8.296;2022-12-18T05:00:18;1573.63;;;321.33;;
13985;SDS011;7067;51.832;8.296;2022-12-18T05:02:44;1380.57;;;269.70;;
13985;SDS011;7067;51.832;8.296;2022-12-18T05:05:09;1425.43;;;295.97;;
13985;SDS011;7067;51.832;8.296;2022-12-18T05:07:35;1762.53;;;337.97;;
13985;SDS011;7067;51.832;8.296;2022-12-18T05:10:00;1311.97;;;285.13;;
13985;SDS011;7067;51.832;8.296;2022-12-18T05:12:26;1414.17;;;309.40;;
13985;SDS011;7067;51.832;8.296;2022-12-18T05:14:51;1541.33;;;307.60;;
13985;SDS011;7067;51.832;8.296;2022-12-18T05:17:16;1657.63;;;353.67;;
13985;SDS011;7067;51.832;8.296;2022-12-18T05:19:42;1576.40;;;348.30;;
13985;SDS011;7067;51.832;8.296;2022-12-18T05:22:07;1485.20;;;344.00;;
13985;SDS011;7067;51.832;8.296;2022-12-18T05:24:33;1618.43;;;350.70;;
13985;SDS011;7067;51.832;8.296;2022-12-18T05:26:58;1401.77;;;313.50;;
13985;SDS011;7067;51.832;8.296;2022-12-18T05:29:24;1215.33;;;236.80;;
13985;SDS011;7067;51.832;8.296;2022-12-18T05:31:50;1275.90;;;296.27;;
13985;SDS011;7067;51.832;8.296;2022-12-18T05:34:15;1372.07;;;280.47;;
13985;SDS011;7067;51.832;8.296;2022-12-18T05:36:41;1108.77;;;261.93;;
13985;SDS011;7067;51.832;8.296;2022-12-18T05:39:06;1999.90;;;999.90;;
13985;SDS011;7067;51.832;8.296;2022-12-18T05:41:32;1542.07;;;206.20;;
13985;SDS011;7067;51.832;8.296;2022-12-18T05:43:57;1751.17;;;753.43;;
13985;SDS011;7067;51.832;8.296;2022-12-18T05:46:23;1348.47;;;298.83;;
13985;SDS011;7067;51.832;8.296;2022-12-18T05:48:49;1326.07;;;269.50;;
13985;SDS011;7067;51.832;8.296;2022-12-18T05:51:16;1721.00;;;744.00;;
13985;SDS011;7067;51.832;8.296;2022-12-18T05:53:43;1751.13;;;495.47;;
13985;SDS011;7067;51.832;8.296;2022-12-18T05:56:10;1173.13;;;278.73;;
13985;SDS011;7067;51.832;8.296;2022-12-18T05:58:37;1297.13;;;281.20;;
13985;SDS011;7067;51.832;8.296;2022-12-18T06:01:06;1768.77;;;768.50;;
13985;SDS011;7067;51.832;8.296;2022-12-18T06:03:32;1431.35;;;309.75;;
13985;SDS011;7067;51.832;8.296;2022-12-18T06:05:57;1176.57;;;437.80;;
13985;SDS011;7067;51.832;8.296;2022-12-18T06:08:22;1296.67;;;281.80;;
13985;SDS011;7067;51.832;8.296;2022-12-18T06:10:51;1627.70;;;318.00;;
13985;SDS011;7067;51.832;8.296;2022-12-18T06:13:20;1506.37;;;326.43;;
13985;SDS011;7067;51.832;8.296;2022-12-18T06:15:45;1884.17;;;754.23;;
13985;SDS011;7067;51.832;8.296;2022-12-18T06:18:11;1148.87;;;265.93;;
13985;SDS011;7067;51.832;8.296;2022-12-18T06:20:36;803.37;;;133.37;;
13985;SDS011;7067;51.832;8.296;2022-12-18T06:23:04;1837.73;;;752.77;;
13985;SDS011;7067;51.832;8.296;2022-12-18T06:25:30;1414.33;;;301.53;;
13985;SDS011;7067;51.832;8.296;2022-12-18T06:27:55;1361.60;;;307.57;;
13985;SDS011;7067;51.832;8.296;2022-12-18T06:30:20;1661.93;;;522.47;;
13985;SDS011;7067;51.832;8.296;2022-12-18T06:32:50;1742.90;;;239.67;;
13985;SDS011;7067;51.832;8.296;2022-12-18T06:35:15;1999.90;;;999.90;;
13985;SDS011;7067;51.832;8.296;2022-12-18T06:37:40;1252.13;;;269.03;;
13985;SDS011;7067;51.832;8.296;2022-12-18T06:40:06;1400.33;;;188.40;;
13985;SDS011;7067;51.832;8.296;2022-12-18T06:42:32;1508.60;;;200.83;;
13985;SDS011;7067;51.832;8.296;2022-12-18T06:44:58;1999.90;;;999.90;;
13985;SDS011;7067;51.832;8.296;2022-12-18T06:47:23;1385.93;;;228.80;;
13985;SDS011;7067;51.832;8.296;2022-12-18T06:49:49;1659.57;;;224.17;;
13985;SDS011;7067;51.832;8.296;2022-12-18T06:52:14;1627.23;;;208.03;;
13985;SDS011;7067;51.832;8.296;2022-12-18T06:54:39;1615.03;;;269.33;;
13985;SDS011;7067;51.832;8.296;2022-12-18T06:57:05;1319.50;;;247.87;;
13985;SDS011;7067;51.832;8.296;2022-12-18T06:59:30;1999.90;;;999.90;;
13985;SDS011;7067;51.832;8.296;2022-12-18T07:01:56;1999.90;;;999.90;;
13985;SDS011;7067;51.832;8.296;2022-12-18T07:04:21;1999.90;;;999.90;;
13985;SDS011;7067;51.832;8.296;2022-12-18T07:06:46;1468.07;;;234.37;;
13985;SDS011;7067;51.832;8.296;2022-12-18T07:09:12;1543.00;;;286.03;;
13985;SDS011;7067;51.832;8.296;2022-12-18T07:11:37;1920.90;;;763.63;;
13985;SDS011;7067;51.832;8.296;2022-12-18T07:14:02;1513.13;;;295.47;;
13985;SDS011;7067;51.832;8.296;2022-12-18T07:16:28;1722.73;;;317.47;;
13985;SDS011;7067;51.832;8.296;2022-12-18T07:18:56;1713.87;;;498.57;;
13985;SDS011;7067;51.832;8.296;2022-12-18T07:21:21;1999.90;;;318.33;;
13985;SDS011;7067;51.832;8.296;2022-12-18T07:23:48;1999.90;;;999.90;;
13985;SDS011;7067;51.832;8.296;2022-12-18T07:26:14;1905.30;;;747.30;;
13985;SDS011;7067;51.832;8.296;2022-12-18T07:28:41;1764.17;;;220.57;;
13985;SDS011;7067;51.832;8.296;2022-12-18T07:31:08;1468.17;;;291.10;;
13985;SDS011;7067;51.832;8.296;2022-12-18T07:33:35;1969.77;;;759.43;;
13985;SDS011;7067;51.832;8.296;2022-12-18T07:36:01;1999.90;;;999.90;;
13985;SDS011;7067;51.832;8.296;2022-12-18T07:38:28;1999.90;;;999.90;;
13985;SDS011;7067;51.832;8.296;2022-12-18T07:40:53;1999.90;;;999.90;;
13985;SDS011;7067;51.832;8.296;2022-12-18T07:43:18;1616.03;;;715.20;;
13985;SDS011;7067;51.832;8.296;2022-12-18T07:45:44;1999.90;;;999.90;;
13985;SDS011;7067;51.832;8.296;2022-12-18T07:48:09;1999.90;;;999.90;;
13985;SDS011;7067;51.832;8.296;2022-12-18T07:50:35;1999.90;;;999.90;;
13985;SDS011;7067;51.832;8.296;2022-12-18T07:53:00;1999.90;;;999.90;;
13985;SDS011;7067;51.832;8.296;2022-12-18T07:55:28;1999.90;;;999.90;;
13985;SDS011;7067;51.832;8.296;2022-12-18T07:57:54;1999.90;;;999.90;;
13985;SDS011;7067;51.832;8.296;2022-12-18T08:00:20;1999.90;;;999.90;;
13985;SDS011;7067;51.832;8.296;2022-12-18T08:02:45;1999.90;;;999.90;;
13985;SDS011;7067;51.832;8.296;2022-12-18T08:05:11;1999.90;;;999.90;;
13985;SDS011;7067;51.832;8.296;2022-12-18T08:07:38;1999.90;;;999.90;;
13985;SDS011;7067;51.832;8.296;2022-12-18T08:10:03;1999.90;;;999.90;;
13985;SDS011;7067;51.832;8.296;2022-12-18T08:12:29;1999.90;;;999.90;;
13985;SDS011;7067;51.832;8.296;2022-12-18T08:14:54;1999.90;;;999.90;;
13985;SDS011;7067;51.832;8.296;2022-12-18T08:17:19;1999.90;;;999.90;;
13985;SDS011;7067;51.832;8.296;2022-12-18T08:19:45;1999.90;;;999.90;;
13985;SDS011;7067;51.832;8.296;2022-12-18T08:22:10;1999.90;;;811.07;;
13985;SDS011;7067;51.832;8.296;2022-12-18T08:24:35;1999.90;;;999.90;;
13985;SDS011;7067;51.832;8.296;2022-12-18T08:27:01;1999.90;;;772.40;;
13985;SDS011;7067;51.832;8.296;2022-12-18T08:29:26;1999.90;;;832.87;;
13985;SDS011;7067;51.832;8.296;2022-12-18T08:31:51;1999.90;;;776.83;;
13985;SDS011;7067;51.832;8.296;2022-12-18T08:34:17;1612.50;;;574.80;;
13985;SDS011;7067;51.832;8.296;2022-12-18T08:36:42;1462.50;;;560.50;;
13985;SDS011;7067;51.832;8.296;2022-12-18T08:39:07;532.80;;;439.50;;
13985;SDS011;7067;51.832;8.296;2022-12-18T08:41:33;973.37;;;528.80;;
13985;SDS011;7067;51.832;8.296;2022-12-18T08:43:58;244.27;;;229.53;;
13985;SDS011;7067;51.832;8.296;2022-12-18T08:46:43;303.23;;;281.10;;
13985;SDS011;7067;51.832;8.296;2022-12-18T08:49:08;280.60;;;263.27;;
13985;SDS011;7067;51.832;8.296;2022-12-18T08:51:34;175.80;;;165.23;;
13985;SDS011;7067;51.832;8.296;2022-12-18T08:54:00;62.90;;;58.23;;
13985;SDS011;7067;51.832;8.296;2022-12-18T08:56:26;100.07;;;93.30;;
13985;SDS011;7067;51.832;8.296;2022-12-18T08:58:53;56.10;;;51.53;;
13985;SDS011;7067;51.832;8.296;2022-12-18T09:01:19;84.87;;;79.30;;
13985;SDS011;7067;51.832;8.296;2022-12-18T09:03:45;61.33;;;56.77;;
13985;SDS011;7067;51.832;8.296;2022-12-18T09:06:12;56.73;;;52.73;;
13985;SDS011;7067;51.832;8.296;2022-12-18T09:08:39;34.87;;;31.93;;
13985;SDS011;7067;51.832;8.296;2022-12-18T09:11:04;26.10;;;22.97;;
13985;SDS011;7067;51.832;8.296;2022-12-18T09:13:37;40.33;;;37.03;;
13985;SDS011;7067;51.832;8.296;2022-12-18T09:16:02;19.50;;;16.73;;
13985;SDS011;7067;51.832;8.296;2022-12-18T09:18:28;40.03;;;36.73;;
13985;SDS011;7067;51.832;8.296;2022-12-18T09:20:53;22.27;;;16.53;;
13985;SDS011;7067;51.832;8.296;2022-12-18T09:23:19;24.63;;;16.73;;
13985;SDS011;7067;51.832;8.296;2022-12-18T09:25:44;21.60;;;15.87;;
13985;SDS011;7067;51.832;8.296;2022-12-18T09:28:13;19.40;;;14.43;;
13985;SDS011;7067;51.832;8.296;2022-12-18T09:30:40;19.10;;;14.05;;
13985;SDS011;7067;51.832;8.296;2022-12-18T09:33:07;19.47;;;15.70;;
13985;SDS011;7067;51.832;8.296;2022-12-18T09:35:35;20.97;;;16.50;;
13985;SDS011;7067;51.832;8.296;2022-12-18T09:38:04;19.87;;;14.80;;
13985;SDS011;7067;51.832;8.296;2022-12-18T09:40:34;18.53;;;14.73;;
13985;SDS011;7067;51.832;8.296;2022-12-18T09:43:03;24.67;;;16.13;;
13985;SDS011;7067;51.832;8.296;2022-12-18T09:45:30;22.43;;;14.73;;
13985;SDS011;7067;51.832;8.296;2022-12-18T09:48:03;18.30;;;14.03;;
13985;SDS011;7067;51.832;8.296;2022-12-18T09:50:32;18.77;;;14.93;;
13985;SDS011;7067;51.832;8.296;2022-12-18T09:52:59;20.20;;;15.00;;
13985;SDS011;7067;51.832;8.296;2022-12-18T09:55:40;20.17;;;15.57;;
13985;SDS011;7067;51.832;8.296;2022-12-18T10:00:37;22.77;;;14.47;;
13985;SDS011;7067;51.832;8.296;2022-12-18T10:03:03;22.73;;;16.23;;
13985;SDS011;7067;51.832;8.296;2022-12-18T10:08:13;20.87;;;16.73;;
13985;SDS011;7067;51.832;8.296;2022-12-18T10:10:57;22.33;;;17.17;;
13985;SDS011;7067;51.832;8.296;2022-12-18T10:13:30;20.73;;;15.68;;
13985;SDS011;7067;51.832;8.296;2022-12-18T10:16:17;19.13;;;15.70;;
13985;SDS011;7067;51.832;8.296;2022-12-18T10:19:12;20.03;;;15.23;;
13985;SDS011;7067;51.832;8.296;2022-12-18T10:24:52;23.30;;;15.80;;
13985;SDS011;7067;51.832;8.296;2022-12-18T10:27:23;18.33;;;14.47;;
13985;SDS011;7067;51.832;8.296;2022-12-18T10:29:50;18.47;;;14.90;;
13985;SDS011;7067;51.832;8.296;2022-12-18T10:32:17;25.27;;;17.23;;
13985;SDS011;7067;51.832;8.296;2022-12-18T10:34:47;19.40;;;13.67;;
13985;SDS011;7067;51.832;8.296;2022-12-18T10:37:18;18.47;;;13.43;;
13985;SDS011;7067;51.832;8.296;2022-12-18T10:39:46;19.40;;;14.93;;
13985;SDS011;7067;51.832;8.296;2022-12-18T10:42:18;17.23;;;13.73;;
13985;SDS011;7067;51.832;8.296;2022-12-18T10:44:44;17.03;;;13.87;;
13985;SDS011;7067;51.832;8.296;2022-12-18T10:47:15;14.43;;;12.67;;
13985;SDS011;7067;51.832;8.296;2022-12-18T10:49:50;18.67;;;14.43;;
13985;SDS011;7067;51.832;8.296;2022-12-18T10:52:19;17.70;;;15.00;;
13985;SDS011;7067;51.832;8.296;2022-12-18T10:54:47;18.53;;;13.00;;
13985;SDS011;7067;51.832;8.296;2022-12-18T10:57:15;19.03;;;14.27;;
13985;SDS011;7067;51.832;8.296;2022-12-18T10:59:51;17.37;;;14.17;;
13985;SDS011;7067;51.832;8.296;2022-12-18T11:02:36;18.90;;;14.90;;
13985;SDS011;7067;51.832;8.296;2022-12-18T11:05:03;24.70;;;16.67;;
13985;SDS011;7067;51.832;8.296;2022-12-18T11:07:48;21.73;;;14.73;;
13985;SDS011;7067;51.832;8.296;2022-12-18T11:10:20;18.80;;;14.03;;
13985;SDS011;7067;51.832;8.296;2022-12-18T11:12:47;14.97;;;12.70;;
13985;SDS011;7067;51.832;8.296;2022-12-18T11:15:20;16.93;;;13.30;;
13985;SDS011;7067;51.832;8.296;2022-12-18T11:17:47;18.13;;;14.03;;
13985;SDS011;7067;51.832;8.296;2022-12-18T11:20:32;18.17;;;14.70;;
13985;SDS011;7067;51.832;8.296;2022-12-18T11:23:00;21.97;;;15.23;;
13985;SDS011;7067;51.832;8.296;2022-12-18T11:25:27;17.60;;;14.37;;
13985;SDS011;7067;51.832;8.296;2022-12-18T11:27:54;19.67;;;13.50;;
13985;SDS011;7067;51.832;8.296;2022-12-18T11:32:56;16.87;;;13.53;;
13985;SDS011;7067;51.832;8.296;2022-12-18T11:46:07;14.63;;;12.30;;
13985;SDS011;7067;51.832;8.296;2022-12-18T11:48:37;17.33;;;12.53;;
13985;SDS011;7067;51.832;8.296;2022-12-18T11:51:09;17.17;;;12.77;;
13985;SDS011;7067;51.832;8.296;2022-12-18T11:53:37;18.73;;;12.67;;
13985;SDS011;7067;51.832;8.296;2022-12-18T11:58:55;27.47;;;11.47;;
13985;SDS011;7067;51.832;8.296;2022-12-18T12:06:55;15.97;;;12.10;;
13985;SDS011;7067;51.832;8.296;2022-12-18T12:09:40;11.77;;;9.87;;
13985;SDS011;7067;51.832;8.296;2022-12-18T12:17:45;17.43;;;10.80;;
13985;SDS011;7067;51.832;8.296;2022-12-18T12:20:24;16.07;;;11.63;;
13985;SDS011;7067;51.832;8.296;2022-12-18T12:26:01;16.77;;;13.03;;
13985;SDS011;7067;51.832;8.296;2022-12-18T12:34:25;57.35;;;20.77;;
13985;SDS011;7067;51.832;8.296;2022-12-18T12:39:47;16.67;;;10.53;;
13985;SDS011;7067;51.832;8.296;2022-12-18T12:42:16;12.27;;;10.03;;
13985;SDS011;7067;51.832;8.296;2022-12-18T12:45:07;10.10;;;8.90;;
13985;SDS011;7067;51.832;8.296;2022-12-18T12:47:41;11.00;;;9.20;;
13985;SDS011;7067;51.832;8.296;2022-12-18T12:50:11;10.60;;;8.60;;
13985;SDS011;7067;51.832;8.296;2022-12-18T12:52:45;9.43;;;8.43;;
13985;SDS011;7067;51.832;8.296;2022-12-18T12:55:17;11.97;;;10.10;;
13985;SDS011;7067;51.832;8.296;2022-12-18T13:00:43;12.70;;;9.90;;
13985;SDS011;7067;51.832;8.296;2022-12-18T13:04:03;14.53;;;10.53;;
13985;SDS011;7067;51.832;8.296;2022-12-18T13:09:07;9.00;;;7.93;;
13985;SDS011;7067;51.832;8.296;2022-12-18T13:11:42;10.27;;;8.60;;
13985;SDS011;7067;51.832;8.296;2022-12-18T13:14:31;12.20;;;8.17;;
13985;SDS011;7067;51.832;8.296;2022-12-18T13:22:47;21.00;;;9.93;;
13985;SDS011;7067;51.832;8.296;2022-12-18T13:25:26;14.20;;;8.30;;
13985;SDS011;7067;51.832;8.296;2022-12-18T13:28:00;9.73;;;7.80;;
13985;SDS011;7067;51.832;8.296;2022-12-18T13:38:25;22.27;;;8.43;;
13985;SDS011;7067;51.832;8.296;2022-12-18T13:40:58;41.07;;;10.93;;
13985;SDS011;7067;51.832;8.296;2022-12-18T13:43:31;11.00;;;7.80;;
13985;SDS011;7067;51.832;8.296;2022-12-18T13:46:27;9.23;;;7.50;;
13985;SDS011;7067;51.832;8.296;2022-12-18T13:49:01;10.00;;;7.93;;
13985;SDS011;7067;51.832;8.296;2022-12-18T13:51:27;14.00;;;8.93;;
13985;SDS011;7067;51.832;8.296;2022-12-18T13:53:55;20.30;;;8.77;;
13985;SDS011;7067;51.832;8.296;2022-12-18T13:56:27;67.30;;;18.40;;
13985;SDS011;7067;51.832;8.296;2022-12-18T13:59:10;13.30;;;7.77;;
13985;SDS011;7067;51.832;8.296;2022-12-18T14:01:44;11.77;;;8.80;;
13985;SDS011;7067;51.832;8.296;2022-12-18T14:04:11;8.10;;;6.65;;
13985;SDS011;7067;51.832;8.296;2022-12-18T14:06:37;9.27;;;7.40;;
13985;SDS011;7067;51.832;8.296;2022-12-18T14:09:03;9.63;;;8.63;;
13985;SDS011;7067;51.832;8.296;2022-12-18T14:11:28;9.07;;;7.40;;
13985;SDS011;7067;51.832;8.296;2022-12-18T14:13:54;7.87;;;7.07;;
13985;SDS011;7067;51.832;8.296;2022-12-18T14:16:19;9.77;;;8.10;;
13985;SDS011;7067;51.832;8.296;2022-12-18T14:21:20;21.70;;;7.53;;
13985;SDS011;7067;51.832;8.296;2022-12-18T14:23:47;10.87;;;8.00;;
13985;SDS011;7067;51.832;8.296;2022-12-18T14:26:23;8.53;;;6.63;;
13985;SDS011;7067;51.832;8.296;2022-12-18T14:29:39;20.00;;;7.90;;
13985;SDS011;7067;51.832;8.296;2022-12-18T14:34:44;7.77;;;5.90;;
13985;SDS011;7067;51.832;8.296;2022-12-18T14:37:11;15.47;;;7.03;;
13985;SDS011;7067;51.832;8.296;2022-12-18T14:39:39;5.97;;;5.23;;
13985;SDS011;7067;51.832;8.296;2022-12-18T14:42:04;6.80;;;6.20;;
13985;SDS011;7067;51.832;8.296;2022-12-18T14:44:30;9.30;;;6.73;;
13985;SDS011;7067;51.832;8.296;2022-12-18T14:46:55;9.10;;;6.17;;
13985;SDS011;7067;51.832;8.296;2022-12-18T14:49:23;6.77;;;6.17;;
13985;SDS011;7067;51.832;8.296;2022-12-18T14:51:54;9.07;;;6.60;;
13985;SDS011;7067;51.832;8.296;2022-12-18T14:54:22;13.67;;;7.93;;
13985;SDS011;7067;51.832;8.296;2022-12-18T14:56:49;12.53;;;8.67;;
13985;SDS011;7067;51.832;8.296;2022-12-18T14:59:20;15.73;;;8.30;;
13985;SDS011;7067;51.832;8.296;2022-12-18T15:04:47;8.82;;;7.60;;
13985;SDS011;7067;51.832;8.296;2022-12-18T15:07:18;9.87;;;8.30;;
13985;SDS011;7067;51.832;8.296;2022-12-18T15:12:36;10.10;;;7.87;;
13985;SDS011;7067;51.832;8.296;2022-12-18T15:17:58;10.53;;;8.27;;
13985;SDS011;7067;51.832;8.296;2022-12-18T15:20:24;11.47;;;8.43;;
13985;SDS011;7067;51.832;8.296;2022-12-18T15:22:49;12.73;;;9.60;;
13985;SDS011;7067;51.832;8.296;2022-12-18T15:25:27;14.70;;;9.97;;
13985;SDS011;7067;51.832;8.296;2022-12-18T15:27:57;9.60;;;8.27;;
13985;SDS011;7067;51.832;8.296;2022-12-18T15:30:23;10.93;;;9.23;;
13985;SDS011;7067;51.832;8.296;2022-12-18T15:32:50;12.73;;;8.60;;
13985;SDS011;7067;51.832;8.296;2022-12-18T15:35:20;9.83;;;8.83;;
13985;SDS011;7067;51.832;8.296;2022-12-18T15:37:47;17.50;;;8.40;;
13985;SDS011;7067;51.832;8.296;2022-12-18T15:40:23;18.20;;;9.30;;
13985;SDS011;7067;51.832;8.296;2022-12-18T15:42:50;28.70;;;10.97;;
13985;SDS011;7067;51.832;8.296;2022-12-18T15:45:36;10.23;;;8.67;;
13985;SDS011;7067;51.832;8.296;2022-12-18T15:48:01;10.73;;;8.20;;
13985;SDS011;7067;51.832;8.296;2022-12-18T15:50:27;10.80;;;9.70;;
13985;SDS011;7067;51.832;8.296;2022-12-18T15:52:53;18.03;;;10.07;;
13985;SDS011;7067;51.832;8.296;2022-12-18T15:55:21;21.53;;;11.90;;
13985;SDS011;7067;51.832;8.296;2022-12-18T15:58:08;30.13;;;12.40;;
13985;SDS011;7067;51.832;8.296;2022-12-18T16:00:34;24.00;;;12.77;;
13985;SDS011;7067;51.832;8.296;2022-12-18T16:03:01;15.07;;;11.50;;
13985;SDS011;7067;51.832;8.296;2022-12-18T16:05:27;18.03;;;13.23;;
13985;SDS011;7067;51.832;8.296;2022-12-18T16:07:53;20.53;;;13.10;;
13985;SDS011;7067;51.832;8.296;2022-12-18T16:10:19;17.07;;;11.67;;
13985;SDS011;7067;51.832;8.296;2022-12-18T16:12:44;20.87;;;12.67;;
13985;SDS011;7067;51.832;8.296;2022-12-18T16:15:11;15.63;;;11.40;;
13985;SDS011;7067;51.832;8.296;2022-12-18T16:17:38;18.90;;;12.67;;
13985;SDS011;7067;51.832;8.296;2022-12-18T16:20:05;31.50;;;14.47;;